LKPR/PRG METAR and TAF weather

Enter ICAO airport designator
Station Type Date Time Source
LKPR METAR 2018/12/15 22:30 UTC NOAA

LKPR 152230Z 00000KT 9000 OVC027 M02/M03 Q1021 R24/29//95 R30/520195 NOSIG


Station Type Date Time Source
LKPR Decoded METAR 2018/12/15 22:30 UTC NOAA

Praha / Ruzyne, Czech Republic (LKPR) 50-06N 014-15E 365M
Dec 15, 2018 - 05:30 PM EST / 2018.12.15 2230 UTC
Wind: Calm:0
Visibility: 5 mile(s):0
Sky conditions: overcast
Temperature: 28 F (-2 C)
Dew Point: 26 F (-3 C)
Relative Humidity: 92%
Pressure (altimeter): 30.15 in. Hg (1021 hPa)
ob: LKPR 152230Z 00000KT 9000 OVC027 M02/M03 Q1021 R24/29//95 R30/520195 NOSIG
cycle: 22

Station Type Date Time Source
LKPR TAF 2018/12/15 18:04 UTC NOAA

TAF LKPR 151700Z 1518/1700 33005KT 9999 SCT010 BKN033 PROB30
TEMPO 1518/1521 4000 -SN BR BKN007 OVC023
BECMG 1518/1520 VRB02KT
BECMG 1600/1602 13004KT PROB30
TEMPO 1602/1607 3000 BR NSC


Example: see airport list